Airfield :
LOGIN :

Register | Disclaimer

   EN    FR    IT 

 










Legend :    VFR   Marginal VFR   IFR   Intensive IFR   Very Intensive IFR
Visi :
Ceiling :
>= 8 km
>= 3000ft
5 to 8 km
1000 to 3000 ft
1500m to 5 km
500 to 1000 ft
800 to 1500m
200 to 500 ft
< 800m
< 200 ft
Symbols :   Thunderstorms  Fog  Heavy snow  Heavy precipitations  Wind > 20 kt
SIGMETs :     Misc.  Thunderstorms  Icing  Turbulence  Mountain Waves  Volcanic Ashes







- Airport Elevation : 3 ft
- IATA code : LWR


EHLW - Leuuwarden Air Base

CURRENT METAR :
  • 160155Z AUTO 17006KT 140V200 7000 BR SCT017 OVC021 18/16 Q1014 WHT 24011KT 9999 FEW018 BKN028

EXPIRED METARs :
  • 160125Z AUTO 17006KT 140V200 7000 BR BKN027 OVC030 18/17 Q1015 WHT 24011KT 9999 FEW018 BKN028
  • 160112Z AUTO 18006KT 150V210 7000 BR OVC029 18/16 Q1015 WHT 24011KT 9999 FEW018 BKN028
  • 160055Z AUTO 18006KT 140V240 9000 BR OVC030 18/16 Q1015 BLU 24011KT 9999 FEW018 BKN028
  • 160025Z AUTO 18006KT 140V230 9999 OVC031 18/16 Q1015 BLU 24011KT 9999 FEW018 BKN028
  • 160016Z AUTO 18006KT 160V220 9999 FEW020 OVC032 18/16 Q1015 BLU 24011KT 9999 FEW018 BKN028
  • 152359Z AUTO 19005KT 150V240 9999 SCT021 OVC032 18/16 Q1016 WHT 24011KT 9999 FEW018 BKN028
  • 152355Z AUTO 20006KT 160V230 9999 OVC033 18/16 Q1016 BLU 24011KT 9999 FEW018 BKN028
  • 152325Z AUTO 20006KT 9999 FEW030 OVC034 18/16 Q1016 BLU 24011KT 9999 FEW018 BKN028

Expired Forecast.
No reported NOTAMs for that airfield.



MET'MAP, your aeronautical weather chart ! - Copyright ORBIFLY December 2007 - Disclaimer

ORBIFLY MET'MAP TEAM :

Programming & Development : Alexandra Zaïnal
Concept & Development : Baudouin d'Aumeries
Co-Development & Prog : Marc-Olivier Méhu
Technical & hardware support : Manuel Goepfert

Contact : metmap@orbifly.com




SOURCES & CREDITS :

   NOAA